Tonopah, Nevada Weather observations

Data are for observation ending at time listed.
 Day   Time    Ave.   Ave.  Ave.  Vector   Max.   Stn.    Total    Solar   Ave.  
  of    of     Air    Rel.  Wind   Wind    Wind   Baro.  Precip.   Rad.    Soil  
Year   Day     Temp.  Hum.  Speed  Dir.    Gust   Pres.                    Temp. 
2016   (PST)    F      %     mph   deg.    mph     mb.     in.     W/m2     F   
------------------------------------------------------------------------------
 340   11:50   43.1    31   13.6   301     24.5   809.1    0.00     589    31.9
 340   12:00   43.0    31   14.2   295     21.8   809.0    0.00     575    32.1
 340   12:10   42.9    31   15.6   292     22.4   808.9    0.00     563    32.3
 340   12:20   43.6    30   13.4   294     24.8   808.8    0.00     514    32.6
 340   12:30   43.4    29   14.5   294     24.5   808.7    0.00     535    32.9
 340   12:40   43.7    28   12.9   297     21.1   808.6    0.00     480    33.2
 340   12:50   44.4    25   13.0   291     19.7   808.5    0.00     498    33.5
 340   13:00   44.9    21   14.2   288     22.6   808.4    0.00     538    33.8
 340   13:10   45.0    20   14.8   300     23.3   808.3    0.00     472    34.1
 340   13:20   45.4    19   14.0   302     21.0   808.3    0.00     448    34.3
 340   13:30   45.4    19   13.1   306     21.2   808.3    0.00     406    34.5
 340   13:40   45.0    20   14.2   309     23.1   808.3    0.00     376    34.8
 340   13:50   45.2    23   11.9   302     20.2   808.4    0.00     382    35.0
 340   14:00   44.9    22   13.6   301     21.5   808.3    0.00     321    35.2
 340   14:10   44.9    21   12.7   298     20.6   808.2    0.00     268    35.3
 340   14:20   44.8    21   11.8   297     20.5   808.2    0.00     279    35.5
 340   14:30   45.0    22   12.2   297     17.4   808.2    0.00     285    35.7
 340   14:40   45.0    21    9.9   302     15.7   808.2    0.00     261    35.8
 340   14:50   44.8    19   11.7   301     17.4   808.2    0.00     249    35.9
 340   15:00   44.5    18   11.6   306     17.3   808.1    0.00     223    36.0
 340   15:10   44.4    17   11.7   303     21.4   808.1    0.00     211    36.1
 340   15:20   44.0    16   11.6   302     20.5   808.1    0.00     178    36.2
 340   15:30   43.5    16   13.1   301     19.1   808.0    0.00     126    36.2
 340   15:40   42.8    17   10.3   303     18.4   808.0    0.00      77    36.3
 340   15:50   42.2    16    8.5   296     13.9   807.9    0.00      58    36.3
 340   16:00   41.7    17    7.7   300     13.8   807.9    0.00      45    36.3
 340   16:10   41.1    18    6.6   298     12.2   807.8    0.00      26    36.3
 340   16:20   40.6    18    6.6   300     11.0   807.8    0.00      13    36.3
 340   16:30   40.1    18    4.7   273      9.7   807.7    0.00       4    36.2
 340   16:40   39.7    18    6.4   282      8.8   807.7    0.00       3    36.2
 340   16:50   39.4    18    7.6   312     12.4   807.5    0.00       0    36.1
 340   17:00   39.1    17    4.0   265      9.8   807.6    0.00       0    36.1
 340   17:10   38.9    16    3.6   275      7.0   807.6    0.00       0    36.0
 340   17:20   38.4    16    2.1   280      3.7   807.7    0.00       0    35.9
 340   17:30   38.1    17    1.6   319      3.3   807.7    0.00       0    35.8
 340   17:40   37.4    18    0.2   305      1.8   807.7    0.00       0    35.7
 340   17:50   36.9    18    0.5   287      2.6   807.6    0.00       0    35.5
 340   18:00   36.2    20    0.8   339      1.7   807.6    0.00       0    35.4
 340   18:10   35.6    20    1.3   254      2.5   807.6    0.00       0    35.3
 340   18:20   34.9    22    0.5   350      1.4   807.6    0.00       0    35.2
 340   18:30   34.1    23    0.4   341      1.5   807.6    0.00       0    35.0
 340   18:40   34.0    23    0.9   310      1.8   807.6    0.00       0    34.8
 340   18:50   34.3    22    0.4   270      1.6   807.5    0.00       0    34.7
 340   19:00   34.1    22    0.3    54      1.7   807.5    0.00       0    34.6
 340   19:10   33.4    24    0.2    65      1.4   807.5    0.00       0    34.4
 340   19:20   33.9    22    0.4   322      1.8   807.5    0.00       0    34.3
 340   19:30   35.0    20    1.1   293      3.4   807.5    0.00       0    34.2
 340   19:40   35.4    20    0.7   297      1.9   807.4    0.00       0    34.1
 340   19:50   35.9    19    1.9   217      4.2   807.3    0.00       0    34.0
 340   20:00   36.2    21    0.8   285      2.5   807.4    0.00       0    33.9
 340   20:10   36.1    19    0.4   182      1.5   807.4    0.00       0    33.8
 340   20:20   36.1    20    1.5   181      2.3   807.3    0.00       0    33.7
 340   20:30   35.7    22    0.9   197      2.5   807.3    0.00       0    33.7
 340   20:40   34.3    24    0.3    61      1.6   807.3    0.00       0    33.6
 340   20:50   34.8    22    0.8   243      2.3   807.2    0.00       0    33.5
 340   21:00   35.0    23    0.1   267      2.9   807.2    0.00       0    33.5
 340   21:10   35.2    22    0.3   257      2.9   807.2    0.00       0    33.4
 340   21:20   35.4    22    0.5    35      1.5   807.3    0.00       0    33.4
 340   21:30   36.0    20    1.2   219      2.7   807.3    0.00       0    33.3
 340   21:40   35.0    23    1.5   242      3.0   807.2    0.00       0    33.3
 340   21:50   34.3    25    0.5    21      1.5   807.1    0.00       0    33.2
 340   22:00   33.4    25    0.3   154      1.5   807.1    0.00       0    33.2
 340   22:10   32.6    26    0.9   211      3.3   807.1    0.00       0    33.1
 340   22:20   32.7    27    0.9   162      3.4   807.1    0.00       0    33.1
 340   22:30   33.1    26    0.5   231      2.2   807.1    0.00       0    33.0
 340   22:40   33.6    27    0.4   250      2.1   807.0    0.00       0    32.9
 340   22:50   34.2    26    0.8   218      2.0   806.9    0.00       0    32.9
 340   23:00   34.9    26    0.3   235      1.6   806.9    0.00       0    32.9
 340   23:10   34.7    27    0.2   164      0.9   806.8    0.00       0    32.8
 340   23:20   34.5    28    0.4   118      1.4   806.8    0.00       0    32.8
 340   23:30   34.6    28    1.1   176      2.4   806.8    0.00       0    32.8
 340   23:40   34.5    28    0.3    32      1.1   806.7    0.00       0    32.7
 340   23:50   35.0    28    0.0   301      1.0   806.7    0.00       0    32.7
 341    0:00   34.8    28    0.2   238      1.5   806.6    0.00       0    32.7
 341    0:10   35.4    28    1.7   230      4.0   806.5    0.00       0    32.6
 341    0:20   35.2    28    0.9   247      3.0   806.4    0.00       0    32.6
 341    0:30   35.0    29    0.3   298      1.8   806.4    0.00       0    32.6
 341    0:40   34.9    28    1.2   260      2.3   806.3    0.00       0    32.6
 341    0:50   35.0    28    2.6   245      4.6   806.3    0.00       0    32.6
 341    1:00   35.2    29    0.7   266      3.4   806.3    0.00       0    32.5
 341    1:10   34.7    30    0.3   269      1.5   806.3    0.00       0    32.5
 341    1:20   34.5    30    0.2   263      0.9   806.2    0.00       0    32.5
 341    1:30   34.2    31    0.3   255      1.0   806.2    0.00       0    32.5
 341    1:40   33.8    33    0.4   272      2.0   806.2    0.00       0    32.5
 341    1:50   33.4    32    0.0     0      0.0   806.2    0.00       0    32.4
 341    2:00   33.5    31    0.7   256      1.7   806.3    0.00       0    32.4
 341    2:10   33.3    32    0.6   260      1.8   806.3    0.00       0    32.4
 341    2:20   32.8    33    0.5   262      1.5   806.3    0.00       0    32.4
 341    2:30   32.6    32    0.0   272      0.1   806.1    0.00       0    32.4
 341    2:40   33.3    30    1.2   229      3.2   806.0    0.00       0    32.3
 341    2:50   33.2    30    2.0   253      3.6   806.0    0.00       0    32.3
 341    3:00   32.1    31    1.4   272      3.1   806.0    0.00       0    32.2
 341    3:10   32.1    30    1.1   263      3.4   806.0    0.00       0    32.2
 341    3:20   31.6    30    1.5   239      3.1   805.9    0.00       0    32.2
 341    3:30   31.3    30    1.6   240      3.1   805.9    0.00       0    32.1
 341    3:40   30.1    34    0.8   240      2.0   805.9    0.00       0    32.1
 341    3:50   28.9    36    0.8    98      1.9   805.7    0.00       0    32.1
 341    4:00   29.0    35    1.3   132      2.4   805.6    0.00       0    32.0
 341    4:10   28.4    38    1.3   118      2.3   805.4    0.00       0    32.0
 341    4:20   27.5    39    0.8   110      2.3   805.3    0.00       0    32.0
 341    4:30   26.9    42    1.0   128      2.6   805.3    0.00       0    31.9
 341    4:40   27.8    39    0.4   207      1.5   805.3    0.00       0    31.9
 341    4:50   27.9    39    0.8   179      1.7   805.2    0.00       0    31.8
 341    5:00   28.9    36    1.8   236      4.0   805.3    0.00       0    31.7
 341    5:10   29.2    36    0.8   247      3.7   805.3    0.00       0    31.7
 341    5:20   27.8    38    1.2   249      3.2   805.4    0.00       0    31.6
 341    5:30   27.7    38    1.6   247      3.3   805.4    0.00       0    31.6
 341    5:40   27.5    39    2.2   248      3.9   805.5    0.00       0    31.6
 341    5:50   27.9    39    2.0   276      4.5   805.6    0.00       0    31.5
 341    6:00   28.8    37    3.0   276      4.8   805.7    0.00       0    31.5
 341    6:10   29.5    36    2.9   279      6.1   805.8    0.00       0    31.4
 341    6:20   28.7    38    2.7   249      4.8   805.8    0.00       0    31.4
 341    6:30   28.0    40    1.3   258      2.3   805.8    0.00       0    31.3
 341    6:40   27.2    42    1.3   230      2.9   805.8    0.00       1    31.3
 341    6:50   25.4    46    2.3   112      3.9   805.6    0.00       4    31.2
 341    7:00   24.8    47    2.4   115      4.2   805.5    0.00       5    31.2
 341    7:10   24.8    47    2.0   123      3.1   805.5    0.00      11    31.1
 341    7:20   25.4    46    0.9   130      2.2   805.6    0.00      30    31.0
 341    7:30   27.8    42    1.1    86      2.0   805.6    0.00      68    31.0
 341    7:40   30.8    36    1.2   116      2.0   805.6    0.00     105    30.9
 341    7:50   32.2    34    1.2   128      1.8   805.7    0.00     142    30.9
 341    8:00   33.9    32    1.2   110      2.0   805.7    0.00     173    30.9
 341    8:10   36.2    29    0.4    92      1.2   805.7    0.00     203    30.9
 341    8:20   38.6    26    0.2   236      1.0   805.7    0.00     239    30.9
 341    8:30   39.4    25    0.2    21      1.0   805.7    0.00     265    30.9
 341    8:40   40.2    24    1.0   303      3.8   805.6    0.00     290    30.9
 341    8:50   38.5    26    2.2   331      3.7   805.6    0.00     322    30.9
 341    9:00   38.1    26    5.4   278     10.5   805.5    0.00     351    30.9
 341    9:10   38.7    26    4.8   272     10.7   805.5    0.00     379    30.9
 341    9:20   39.0    25    6.1   261      9.1   805.4    0.00     406    30.9
 341    9:30   38.7    25    7.1   267     10.4   805.5    0.00     430    31.0
 341    9:40   39.0    25    6.6   261     11.4   805.5    0.00     453    31.0
 341    9:50   39.2    25    7.9   266     12.9   805.4    0.00     474    31.1
 341   10:00   39.6    25    7.4   264     11.8   805.3    0.00     494    31.1
 341   10:10   39.9    25   10.1   265     15.7   805.3    0.00     512    31.1
 341   10:20   40.5    25    9.4   271     15.9   805.2    0.00     527    31.2
 341   10:30   41.3    24    9.2   280     16.1   805.1    0.00     539    31.2
 341   10:40   41.7    23   10.5   281     17.9   804.9    0.00     553    31.2
 341   10:50   42.2    21   10.3   274     16.5   804.8    0.00     565    31.3
 341   11:00   42.5    20   10.6   273     17.5   804.7    0.00     575    31.3
 341   11:10   43.0    19   11.0   275     18.5   804.6    0.00     581    31.4
 341   11:20   43.0    19   10.6   277     16.5   804.5    0.00     587    31.4
 341   11:30   43.3    19    9.5   275     16.4   804.3    0.00     591    31.5
 341   11:40   43.4    19    9.7   274     18.6   804.2    0.00     593    31.5

Return to Tonopah, Nevada graphs page.


Western Regional Climate Center,wrcc@dri.edu